Time;durP1;ratioP1;P1;durP2;ratioP2;P2;SDS_P1;SDS_P2;PMS_P1;PMS_P2;Temp;Humidity;BMP_temperature;BMP_pressure;BME280_temperature;BME280_humidity;BME280_pressure;Samples;Min_cycle;Max_cycle;Signal;HPM_P1;HPM_P2
2021/06/12 00:01:00;;;;;;;8.63;5.15;;;;;;;22.25;53.56;101801.09;5043505;27;114382;-63
2021/06/12 00:03:27;;;;;;;7.20;5.00;;;;;;;22.23;53.59;101802.16;5022388;27;123056;-63
2021/06/12 00:05:54;;;;;;;7.90;4.97;;;;;;;22.23;53.70;101802.16;5050633;27;123889;-64
2021/06/12 00:08:21;;;;;;;7.50;4.85;;;;;;;22.22;53.79;101793.19;5051569;27;114648;-64
2021/06/12 00:10:48;;;;;;;7.30;5.07;;;;;;;22.22;53.80;101795.88;5052393;27;115490;-63
2021/06/12 00:13:15;;;;;;;7.72;5.30;;;;;;;22.21;53.64;101799.56;5045555;27;124792;-63
2021/06/12 00:15:42;;;;;;;6.60;4.97;;;;;;;22.21;53.84;101799.56;5049967;27;123989;-63
2021/06/12 00:18:09;;;;;;;6.25;4.90;;;;;;;22.18;53.81;101789.00;5051494;27;114488;-63
2021/06/12 00:20:38;;;;;;;7.22;5.30;;;;;;;22.16;53.79;101801.78;5046409;27;114397;-63
2021/06/12 00:23:06;;;;;;;7.00;5.05;;;;;;;22.12;53.78;101800.31;5049089;27;124449;-63
2021/06/12 00:25:34;;;;;;;7.85;4.80;;;;;;;22.09;53.94;101800.53;5041186;27;124071;-63
2021/06/12 00:28:02;;;;;;;7.88;5.07;;;;;;;22.07;53.73;101807.88;5025348;27;114641;-63
2021/06/12 00:30:30;;;;;;;5.70;4.82;;;;;;;22.04;53.86;101798.22;5027432;28;114845;-63
2021/06/12 00:32:57;;;;;;;9.20;4.95;;;;;;;22.01;53.82;101803.84;5039579;27;123992;-63
2021/06/12 00:35:25;;;;;;;7.00;4.72;;;;;;;21.97;53.76;101797.81;5047331;27;124234;-64
2021/06/12 00:37:52;;;;;;;7.15;4.97;;;;;;;21.96;53.94;101793.41;5024490;27;113373;-64
2021/06/12 00:40:21;;;;;;;7.22;4.78;;;;;;;21.95;53.84;101798.94;5046668;27;114559;-64
2021/06/12 00:42:51;;;;;;;5.85;4.43;;;;;;;21.91;53.90;101802.84;5048962;27;124316;-63
2021/06/12 00:45:24;;;;;;;8.18;4.95;;;;;;;21.87;53.86;101796.84;5047764;27;124601;-63
2021/06/12 00:47:53;;;;;;;7.50;4.72;;;;;;;21.85;53.91;101796.09;5043942;27;114733;-64
2021/06/12 00:50:24;;;;;;;7.85;4.97;;;;;;;21.84;53.81;101791.66;5045444;27;114316;-63
2021/06/12 00:52:51;;;;;;;8.00;4.80;;;;;;;21.82;53.91;101788.22;5044751;27;124865;-63
2021/06/12 00:55:19;;;;;;;7.32;4.93;;;;;;;21.80;53.89;101784.81;5040132;27;124172;-63
2021/06/12 00:57:47;;;;;;;7.35;5.07;;;;;;;21.78;54.01;101775.97;5043876;27;114592;-63
2021/06/12 01:00:17;;;;;;;7.50;5.05;;;;;;;21.76;54.08;101777.94;5040237;27;113928;-63
2021/06/12 01:02:45;;;;;;;7.35;5.25;;;;;;;21.76;53.94;101772.53;5050776;27;124688;-63
2021/06/12 01:05:13;;;;;;;7.22;4.70;;;;;;;21.73;53.88;101768.22;5041283;27;124923;-63
2021/06/12 01:07:41;;;;;;;5.57;4.63;;;;;;;21.71;54.00;101774.72;5046070;27;113188;-63
2021/06/12 01:10:11;;;;;;;6.35;4.43;;;;;;;21.68;54.15;101772.25;5040786;27;114400;-63
2021/06/12 01:13:05;;;;;;;9.65;4.55;;;;;;;21.64;54.18;101773.47;5028221;27;122808;-63
2021/06/12 01:15:49;;;;;;;7.10;4.72;;;;;;;21.62;54.24;101759.25;5042348;27;123467;-64
2021/06/12 01:18:19;;;;;;;6.53;4.53;;;;;;;21.60;54.21;101763.91;5056326;27;114656;-63
2021/06/12 01:20:58;;;;;;;7.43;4.68;;;;;;;21.56;54.15;101766.81;5049371;27;115429;-63
2021/06/12 01:23:42;;;;;;;7.43;4.65;;;;;;;21.53;54.27;101761.69;5051065;27;124363;-63
2021/06/12 01:26:28;;;;;;;9.55;4.93;;;;;;;21.50;54.43;101764.63;5051878;27;122742;-63
2021/06/12 01:29:19;;;;;;;7.47;4.78;;;;;;;21.48;54.60;101777.34;5050547;27;114267;-63
2021/06/12 01:31:48;;;;;;;8.40;4.70;;;;;;;21.46;54.56;101775.75;5054370;27;114002;-63
2021/06/12 01:34:18;;;;;;;8.50;5.13;;;;;;;21.44;54.35;101767.78;5069907;27;123234;-63
2021/06/12 01:36:46;;;;;;;11.07;5.00;;;;;;;21.43;54.47;101776.81;5052169;27;123832;-64
2021/06/12 01:39:19;;;;;;;7.03;4.80;;;;;;;21.42;54.62;101775.09;5039891;27;113273;-63
2021/06/12 01:41:48;;;;;;;6.38;5.05;;;;;;;21.41;54.59;101778.75;5052731;27;114663;-63
2021/06/12 01:44:16;;;;;;;7.95;4.60;;;;;;;21.39;54.70;101781.56;5052188;27;123192;-63
2021/06/12 01:46:45;;;;;;;7.72;4.80;;;;;;;21.37;54.78;101777.28;5050608;27;123872;-64
2021/06/12 01:49:15;;;;;;;11.65;4.88;;;;;;;21.34;54.75;101777.50;5045973;27;114902;-63
2021/06/12 01:51:43;;;;;;;7.93;5.03;;;;;;;21.32;54.71;101774.94;5050338;27;114741;-63
2021/06/12 01:54:11;;;;;;;10.10;5.50;;;;;;;21.31;54.86;101777.75;5051944;27;124373;-63
2021/06/12 01:56:40;;;;;;;7.70;4.97;;;;;;;21.29;54.85;101779.72;5042795;27;122785;-63
2021/06/12 01:59:07;;;;;;;8.73;5.10;;;;;;;21.27;54.99;101789.75;5047208;27;114638;-63
2021/06/12 02:01:35;;;;;;;10.20;5.53;;;;;;;21.24;54.97;101790.81;5054106;27;114086;-63
2021/06/12 02:04:03;;;;;;;9.35;5.82;;;;;;;21.20;55.11;101782.09;5052300;27;124115;-63
2021/06/12 02:06:31;;;;;;;13.70;6.18;;;;;;;21.19;55.16;101780.41;5052200;27;124050;-63
2021/06/12 02:08:59;;;;;;;9.68;5.55;;;;;;;21.16;55.09;101786.00;5052038;27;113056;-63
2021/06/12 02:11:27;;;;;;;7.90;5.60;;;;;;;21.13;55.15;101780.84;5052003;27;115255;-63
2021/06/12 02:13:56;;;;;;;8.48;6.05;;;;;;;21.11;55.32;101788.19;5051985;27;123059;-63
2021/06/12 02:16:24;;;;;;;9.68;6.03;;;;;;;21.09;55.35;101779.34;5041066;27;124711;-63
2021/06/12 02:18:53;;;;;;;9.57;5.82;;;;;;;21.07;55.39;101781.31;5046174;27;113180;-63
2021/06/12 02:21:21;;;;;;;6.72;5.20;;;;;;;21.04;55.49;101770.78;5040649;27;114352;-63
2021/06/12 02:23:51;;;;;;;11.85;6.05;;;;;;;21.02;55.62;101769.16;5049591;27;123907;-63
2021/06/12 02:26:22;;;;;;;8.77;5.90;;;;;;;21.00;55.62;101770.13;5051029;27;124882;-63
2021/06/12 02:28:50;;;;;;;9.73;5.47;;;;;;;20.99;55.68;101786.41;5050676;27;113886;-63
2021/06/12 02:31:30;;;;;;;8.38;5.75;;;;;;;20.96;55.58;101783.94;5051729;27;113842;-63
2021/06/12 02:33:57;;;;;;;8.80;5.50;;;;;;;20.95;55.34;101776.84;5051701;27;124576;-63
2021/06/12 02:36:24;;;;;;;8.00;5.57;;;;;;;20.92;55.51;101777.06;5044672;27;124527;-63
2021/06/12 02:38:52;;;;;;;12.80;5.53;;;;;;;20.90;55.73;101779.00;5043694;27;113910;-64
2021/06/12 02:41:22;;;;;;;10.02;5.75;;;;;;;20.87;55.85;101790.00;5031261;27;114063;-63
2021/06/12 02:43:49;;;;;;;9.13;6.22;;;;;;;20.85;55.85;101791.94;5044369;27;124446;-63
2021/06/12 02:46:21;;;;;;;8.13;5.63;;;;;;;20.83;56.12;101793.88;5037503;27;122896;-63
2021/06/12 02:48:56;;;;;;;8.90;5.20;;;;;;;20.80;55.99;101790.47;5041700;27;114217;-63
2021/06/12 02:51:24;;;;;;;8.82;5.68;;;;;;;20.80;56.03;101789.59;5037882;27;114171;-63
2021/06/12 02:53:54;;;;;;;9.07;5.43;;;;;;;20.77;56.06;101787.97;5052273;27;125113;-64
2021/06/12 02:56:22;;;;;;;12.23;5.50;;;;;;;20.75;56.15;101781.84;5051073;27;124341;-64
2021/06/12 02:58:52;;;;;;;8.05;5.47;;;;;;;20.72;56.18;101782.09;5049918;27;115591;-63
2021/06/12 03:01:20;;;;;;;8.82;5.30;;;;;;;20.70;56.30;101773.28;5038107;27;114843;-64
2021/06/12 03:03:48;;;;;;;9.05;5.35;;;;;;;20.68;56.39;101769.84;5052384;27;124141;-64
2021/06/12 03:06:19;;;;;;;7.38;5.30;;;;;;;20.67;56.54;101773.47;5053462;27;124648;-63
2021/06/12 03:08:49;;;;;;;8.05;5.63;;;;;;;20.64;56.72;101783.59;5051011;27;114636;-63
2021/06/12 03:11:17;;;;;;;9.88;5.85;;;;;;;20.63;56.65;101780.06;5050463;27;114054;-63
2021/06/12 03:13:46;;;;;;;8.27;5.30;;;;;;;20.63;56.83;101772.00;5051456;27;124329;-64
2021/06/12 03:16:16;;;;;;;8.35;5.45;;;;;;;20.64;56.88;101773.69;5052452;27;123600;-63
2021/06/12 03:18:46;;;;;;;10.55;5.55;;;;;;;20.63;57.01;101788.13;5052047;27;114695;-63
2021/06/12 03:21:16;;;;;;;10.45;5.50;;;;;;;20.61;57.09;101779.31;5049894;27;114005;-63
2021/06/12 03:23:44;;;;;;;11.18;5.90;;;;;;;20.60;57.11;101780.28;5048824;27;124288;-63
2021/06/12 03:26:12;;;;;;;8.43;5.60;;;;;;;20.60;57.13;101780.28;5046643;27;123945;-63
2021/06/12 03:28:40;;;;;;;12.48;5.97;;;;;;;20.60;57.15;101793.72;5045293;27;113871;-63
2021/06/12 03:31:07;;;;;;;9.65;6.05;;;;;;;20.59;57.17;101783.94;5052570;27;114021;-63
2021/06/12 03:33:35;;;;;;;9.77;5.97;;;;;;;20.56;57.32;101770.69;5050072;27;124416;-63
2021/06/12 03:36:03;;;;;;;9.30;5.93;;;;;;;20.56;57.51;101767.97;5051219;27;124011;-63
2021/06/12 03:38:34;;;;;;;8.23;5.82;;;;;;;20.56;57.54;101776.06;5049974;27;114205;-64
2021/06/12 03:41:04;;;;;;;9.77;6.00;;;;;;;20.58;57.61;101771.41;5053213;27;114326;-63
2021/06/12 03:43:34;;;;;;;9.73;5.95;;;;;;;20.58;57.81;101771.41;5046875;27;124032;-63
2021/06/12 03:46:02;;;;;;;10.43;6.60;;;;;;;20.60;57.83;101766.81;5051723;27;122926;-64
2021/06/12 03:48:30;;;;;;;10.25;6.32;;;;;;;20.61;57.87;101776.63;5049921;27;115241;-63
2021/06/12 03:50:58;;;;;;;12.65;6.20;;;;;;;20.60;57.96;101777.59;5051856;27;114701;-63
2021/06/12 03:53:30;;;;;;;10.70;6.32;;;;;;;20.60;57.99;101766.81;5051667;27;124200;-63
2021/06/12 03:56:00;;;;;;;9.48;6.80;;;;;;;20.59;57.94;101765.09;5052445;27;124663;-64
2021/06/12 03:58:28;;;;;;;9.65;6.63;;;;;;;20.61;57.93;101760.47;5045672;27;114330;-63
2021/06/12 04:00:55;;;;;;;10.35;6.90;;;;;;;20.63;58.05;101761.22;5050266;27;114384;-63
2021/06/12 04:03:22;;;;;;;10.48;6.80;;;;;;;20.64;57.90;101768.31;5048535;27;124010;-64
2021/06/12 04:05:49;;;;;;;10.13;7.18;;;;;;;20.64;58.03;101772.84;5051918;27;122808;-63
2021/06/12 04:08:16;;;;;;;11.20;6.70;;;;;;;20.64;57.94;101771.00;5037824;27;114650;-63
2021/06/12 04:10:43;;;;;;;10.82;7.00;;;;;;;20.61;57.95;101790.09;5050336;27;113907;-63
2021/06/12 04:13:11;;;;;;;13.52;7.68;;;;;;;20.61;58.18;101790.09;5049430;27;123790;-63
2021/06/12 04:15:38;;;;;;;10.20;6.78;;;;;;;20.60;58.26;101793.72;5050295;27;124020;-63
2021/06/12 04:18:08;;;;;;;10.38;6.82;;;;;;;20.58;58.27;101804.56;5052537;27;114691;-64
2021/06/12 04:20:37;;;;;;;12.90;7.65;;;;;;;20.57;58.31;101800.19;5049882;27;114393;-64
2021/06/12 04:23:06;;;;;;;13.05;8.07;;;;;;;20.58;58.40;101801.03;5049442;27;124870;-63
2021/06/12 04:25:34;;;;;;;10.88;7.60;;;;;;;20.58;58.36;101795.66;5030128;27;122932;-63
2021/06/12 04:28:01;;;;;;;13.35;7.45;;;;;;;20.58;58.46;101801.03;5051804;27;115110;-63
2021/06/12 04:30:29;;;;;;;11.85;8.20;;;;;;;20.58;58.50;101795.66;5051728;27;114060;-64
2021/06/12 04:32:58;;;;;;;12.50;8.20;;;;;;;20.56;58.43;101782.28;5051985;27;124342;-63
2021/06/12 04:35:27;;;;;;;12.63;8.50;;;;;;;20.56;58.75;101792.22;5044740;27;123338;-64
2021/06/12 04:37:59;;;;;;;11.73;7.88;;;;;;;20.55;58.79;101785.09;5045761;27;114408;-64
2021/06/12 04:40:32;;;;;;;12.88;8.25;;;;;;;20.55;58.69;101785.09;5045655;27;115395;-63
2021/06/12 04:43:00;;;;;;;14.73;8.27;;;;;;;20.58;58.92;101787.56;5051016;27;124798;-64
2021/06/12 04:45:28;;;;;;;12.35;9.05;;;;;;;20.59;58.82;101781.22;5034156;27;123321;-64
2021/06/12 04:47:55;;;;;;;14.88;8.85;;;;;;;20.60;58.80;101772.19;5047323;27;114305;-63
2021/06/12 04:50:23;;;;;;;12.93;8.88;;;;;;;20.61;58.84;101779.31;5050237;27;114731;-64
2021/06/12 04:52:50;;;;;;;12.63;8.88;;;;;;;20.62;59.01;101786.41;5053838;27;124380;-64
2021/06/12 04:55:18;;;;;;;11.55;8.93;;;;;;;20.64;59.05;101786.31;5048801;27;123853;-64
2021/06/12 04:57:46;;;;;;;13.32;8.98;;;;;;;20.67;59.08;101778.00;5055458;27;114568;-64
2021/06/12 05:00:14;;;;;;;15.02;9.40;;;;;;;20.70;59.01;101773.28;5053011;27;113916;-64
2021/06/12 05:02:41;;;;;;;11.88;9.20;;;;;;;20.74;59.01;101773.91;5052457;27;124710;-64
2021/06/12 05:05:10;;;;;;;13.55;9.85;;;;;;;20.77;59.00;101769.13;5053892;27;122683;-64
2021/06/12 05:07:38;;;;;;;14.25;9.65;;;;;;;20.82;58.89;101776.03;5054427;27;114523;-64
2021/06/12 05:10:07;;;;;;;14.93;10.23;;;;;;;20.85;59.00;101781.16;5054489;27;114350;-64
2021/06/12 05:12:35;;;;;;;15.90;9.77;;;;;;;20.88;58.97;101783.66;5055197;27;125160;-63
2021/06/12 05:15:05;;;;;;;14.43;9.88;;;;;;;20.90;58.91;101792.47;5052499;27;124289;-64
2021/06/12 05:17:32;;;;;;;13.63;10.20;;;;;;;20.95;59.01;101801.09;5054215;27;114106;-64
2021/06/12 05:20:00;;;;;;;17.50;10.73;;;;;;;20.95;58.96;101798.38;5052953;27;114079;-64
2021/06/12 05:22:27;;;;;;;16.83;10.60;;;;;;;20.97;58.95;101796.44;5053921;27;123921;-64
2021/06/12 05:24:56;;;;;;;14.27;10.65;;;;;;;20.99;59.06;101794.50;5054295;27;124252;-64
2021/06/12 05:27:23;;;;;;;17.55;11.48;;;;;;;21.03;58.82;101800.50;5044123;27;115060;-64
2021/06/12 05:29:53;;;;;;;16.60;10.90;;;;;;;21.04;58.96;101807.59;5042701;27;115432;-64
2021/06/12 05:32:20;;;;;;;15.45;10.77;;;;;;;21.05;58.76;101815.56;5048105;27;124836;-64
2021/06/12 05:34:47;;;;;;;16.88;10.68;;;;;;;21.05;58.81;101820.97;5021951;27;123314;-64
2021/06/12 05:37:15;;;;;;;14.38;10.88;;;;;;;21.07;59.07;101824.41;5043621;27;114297;-64
2021/06/12 05:39:42;;;;;;;17.63;11.02;;;;;;;21.09;58.92;101827.84;5055607;27;114350;-64
2021/06/12 05:42:09;;;;;;;14.50;11.13;;;;;;;21.11;58.78;101825.88;5050865;27;124085;-64
2021/06/12 05:44:38;;;;;;;17.42;11.68;;;;;;;21.13;58.67;101828.47;5054029;27;123965;-64
2021/06/12 05:47:05;;;;;;;19.88;11.38;;;;;;;21.13;58.74;101833.88;5053009;27;114498;-64
2021/06/12 05:49:32;;;;;;;17.48;11.40;;;;;;;21.13;58.71;101834.72;5053774;27;113290;-64
2021/06/12 05:51:59;;;;;;;17.85;11.70;;;;;;;21.13;58.76;101840.09;5051442;27;124603;-64
2021/06/12 05:54:26;;;;;;;16.15;11.32;;;;;;;21.15;58.85;101842.69;5054209;27;123768;-64
2021/06/12 05:56:55;;;;;;;17.80;11.38;;;;;;;21.16;58.84;101845.28;5043200;27;114636;-63
2021/06/12 05:59:23;;;;;;;17.92;11.65;;;;;;;21.18;58.71;101847.84;5052407;27;114079;-63
2021/06/12 06:01:50;;;;;;;18.35;12.02;;;;;;;21.19;58.67;101861.22;5052206;27;123272;-63
2021/06/12 06:04:18;;;;;;;16.27;11.40;;;;;;;21.20;58.85;101856.69;5053307;27;122599;-63
2021/06/12 06:06:46;;;;;;;21.08;12.38;;;;;;;21.22;58.83;101848.50;5053291;27;113329;-63
2021/06/12 06:09:13;;;;;;;19.02;12.48;;;;;;;21.23;58.85;101850.19;5051677;27;114481;-63
2021/06/12 06:11:41;;;;;;;19.83;13.30;;;;;;;21.24;58.75;101862.72;5051623;27;123847;-64
2021/06/12 06:14:08;;;;;;;19.40;13.13;;;;;;;21.25;58.84;101853.63;5051977;27;124703;-63
2021/06/12 06:16:36;;;;;;;22.27;14.90;;;;;;;21.26;58.73;101849.97;5052319;27;114299;-63
2021/06/12 06:19:03;;;;;;;21.63;14.55;;;;;;;21.27;58.79;101846.31;5052781;27;115027;-64
2021/06/12 06:21:30;;;;;;;24.80;15.13;;;;;;;21.27;58.72;101851.72;5050210;27;124174;-64
2021/06/12 06:23:57;;;;;;;25.40;14.95;;;;;;;21.29;58.99;101857.84;5045750;27;124251;-64
2021/06/12 06:26:25;;;;;;;26.60;15.77;;;;;;;21.30;58.83;101856.84;5051905;27;114397;-63
2021/06/12 06:28:52;;;;;;;22.35;15.70;;;;;;;21.32;59.08;101849.50;5051900;27;114461;-64
2021/06/12 06:31:19;;;;;;;25.30;16.20;;;;;;;21.35;59.13;101838.53;5046782;27;124241;-63
2021/06/12 06:33:47;;;;;;;26.80;16.13;;;;;;;21.38;59.03;101843.69;5051827;27;124722;-63
2021/06/12 06:36:14;;;;;;;20.75;16.83;;;;;;;21.43;58.94;101841.50;5044255;27;113423;-63
2021/06/12 06:38:41;;;;;;;22.88;17.30;;;;;;;21.46;59.00;101835.91;5052186;27;114733;-63
2021/06/12 06:41:09;;;;;;;21.58;17.30;;;;;;;21.48;58.87;101850.13;5046765;27;124838;-64
2021/06/12 06:43:36;;;;;;;24.98;17.90;;;;;;;21.52;58.98;101851.63;5052321;27;123909;-63
2021/06/12 06:46:04;;;;;;;23.83;17.95;;;;;;;21.58;59.07;101840.34;5051602;27;114333;-63
2021/06/12 06:48:32;;;;;;;22.52;17.33;;;;;;;21.66;59.00;101852.41;5051553;27;114243;-64
2021/06/12 06:50:59;;;;;;;25.75;18.13;;;;;;;21.72;58.84;101851.97;5049441;27;124407;-63
2021/06/12 06:53:32;;;;;;;25.08;19.00;;;;;;;21.78;58.73;101851.47;5051724;27;123221;-63
2021/06/12 06:56:05;;;;;;;27.83;20.13;;;;;;;21.84;58.96;101861.78;5048509;27;114381;-63
2021/06/12 06:58:33;;;;;;;26.60;19.55;;;;;;;21.93;59.07;101863.78;5047855;27;114488;-63
2021/06/12 07:01:04;;;;;;;23.83;19.80;;;;;;;22.01;58.83;101862.34;5038262;27;124163;-63
2021/06/12 07:03:31;;;;;;;27.67;20.65;;;;;;;22.07;58.53;101872.66;5049674;27;124463;-63
2021/06/12 07:05:58;;;;;;;25.17;19.95;;;;;;;22.11;58.40;101876.81;5050509;27;115378;-63
2021/06/12 07:08:26;;;;;;;26.63;20.85;;;;;;;22.14;58.23;101868.50;5051693;27;114152;-62
2021/06/12 07:10:53;;;;;;;24.85;21.10;;;;;;;22.19;58.24;101877.09;5042481;27;124929;-63
2021/06/12 07:13:22;;;;;;;26.17;20.73;;;;;;;22.24;58.35;101880.28;5047869;27;124048;-63
2021/06/12 07:15:50;;;;;;;26.95;20.60;;;;;;;22.30;58.16;101874.47;5053451;27;114582;-63
2021/06/12 07:18:17;;;;;;;26.75;20.90;;;;;;;22.37;57.99;101884.75;5053003;27;114828;-64
2021/06/12 07:20:47;;;;;;;26.73;21.00;;;;;;;22.42;57.80;101871.78;5051250;27;124104;-63
2021/06/12 07:23:15;;;;;;;27.17;20.85;;;;;;;22.47;57.79;101869.53;5048050;27;122890;-63
2021/06/12 07:25:47;;;;;;;29.05;20.75;;;;;;;22.53;57.86;101869.06;5052046;27;115367;-63
2021/06/12 07:28:15;;;;;;;25.85;20.77;;;;;;;22.60;57.56;101859.47;5053054;27;114192;-63
2021/06/12 07:30:42;;;;;;;25.67;20.88;;;;;;;22.70;57.74;101854.22;5052878;27;124421;-63
2021/06/12 07:33:13;;;;;;;24.75;20.38;;;;;;;22.81;57.62;101861.44;5050289;27;123880;-63
2021/06/12 07:35:41;;;;;;;22.98;20.33;;;;;;;22.92;57.28;101856.91;5052130;27;114299;-63
2021/06/12 07:38:09;;;;;;;26.00;20.45;;;;;;;23.04;56.99;101865.88;5050956;27;113518;-63
2021/06/12 07:40:37;;;;;;;24.90;20.05;;;;;;;23.17;56.61;101873.84;5052525;27;124558;-63
2021/06/12 07:43:04;;;;;;;27.20;21.00;;;;;;;23.26;56.27;101864.97;5052886;27;124792;-63
2021/06/12 07:45:32;;;;;;;24.40;20.55;;;;;;;23.33;56.07;101870.72;5050787;27;114447;-63
2021/06/12 07:48:00;;;;;;;22.38;20.02;;;;;;;23.42;56.28;101883.47;5051899;27;114404;-63
2021/06/12 07:50:28;;;;;;;23.27;19.33;;;;;;;23.55;56.01;101877.06;5051210;27;123337;-63
2021/06/12 07:52:55;;;;;;;30.67;18.52;;;;;;;23.65;55.75;101872.56;5049985;27;124228;-63
2021/06/12 07:55:23;;;;;;;23.80;18.27;;;;;;;23.75;55.67;101883.47;5048404;27;115550;-63
2021/06/12 07:57:50;;;;;;;25.27;17.75;;;;;;;23.81;55.05;101889.28;5047075;27;115498;-63
2021/06/12 08:00:18;;;;;;;19.55;17.23;;;;;;;23.85;54.97;101885.31;5051445;27;123346;-63
2021/06/12 08:02:46;;;;;;;22.13;16.83;;;;;;;23.93;54.63;101894.63;5051494;27;124298;-63
2021/06/12 08:05:13;;;;;;;21.10;15.35;;;;;;;23.95;54.31;101889.94;5046418;27;114334;-63
2021/06/12 08:07:41;;;;;;;19.23;15.52;;;;;;;23.96;53.85;101887.09;5031849;27;114280;-63
2021/06/12 08:10:08;;;;;;;16.60;14.63;;;;;;;23.95;53.67;101887.22;5035730;27;124203;-63
2021/06/12 08:12:36;;;;;;;19.92;15.32;;;;;;;23.96;53.81;101891.63;5035169;27;123494;-63
2021/06/12 08:15:05;;;;;;;17.15;13.57;;;;;;;23.98;53.40;101895.06;5050809;27;114580;-63
2021/06/12 08:17:32;;;;;;;17.20;12.52;;;;;;;24.00;53.46;101901.25;5051396;27;114232;-63
2021/06/12 08:20:00;;;;;;;14.43;11.38;;;;;;;24.03;53.14;101903.66;5049968;27;124156;-62
2021/06/12 08:22:27;;;;;;;12.40;9.60;;;;;;;24.08;52.63;101906.84;5050175;27;123960;-63
2021/06/12 08:24:55;;;;;;;11.27;9.45;;;;;;;24.11;52.05;101893.06;5051882;27;114307;-63
2021/06/12 08:27:22;;;;;;;10.65;8.68;;;;;;;24.16;51.86;101898.91;5051317;27;113105;-63
2021/06/12 08:29:50;;;;;;;11.00;7.65;;;;;;;24.21;51.40;101896.66;5050856;27;124216;-63
2021/06/12 08:32:17;;;;;;;10.80;7.68;;;;;;;24.22;51.03;101901.09;5051360;27;124035;-63
2021/06/12 08:34:45;;;;;;;12.55;7.88;;;;;;;24.22;50.75;101903.81;5031496;27;114671;-63
2021/06/12 08:37:12;;;;;;;10.15;7.75;;;;;;;24.22;50.46;101905.66;5048369;27;114089;-63
2021/06/12 08:39:40;;;;;;;9.10;7.10;;;;;;;24.22;50.53;101914.66;5049480;27;124352;-62
2021/06/12 08:42:07;;;;;;;12.50;7.80;;;;;;;24.20;50.28;101911.19;5044755;27;124336;-63
2021/06/12 08:44:35;;;;;;;10.73;7.13;;;;;;;24.18;50.15;101918.59;5044983;27;115338;-63
2021/06/12 08:47:03;;;;;;;11.82;8.10;;;;;;;24.16;49.51;101915.16;5050405;27;115264;-62
2021/06/12 08:49:31;;;;;;;10.18;6.63;;;;;;;24.14;49.65;101919.84;5051078;27;123717;-63
2021/06/12 08:51:59;;;;;;;8.20;6.40;;;;;;;24.12;49.72;101920.97;5049271;27;124620;-62
2021/06/12 08:54:26;;;;;;;10.13;6.53;;;;;;;24.11;49.41;101928.25;5049932;27;114433;-63
2021/06/12 08:56:54;;;;;;;7.65;5.32;;;;;;;24.09;48.49;101930.19;5050439;27;114320;-63
2021/06/12 08:59:22;;;;;;;7.03;4.20;;;;;;;24.03;48.10;101930.72;5050476;27;123381;-63
2021/06/12 09:01:49;;;;;;;7.15;4.07;;;;;;;23.98;47.80;101935.66;5049608;27;124757;-63
2021/06/12 09:04:45;;;;;;;8.57;4.25;;;;;;;23.93;47.98;101946.03;5051661;27;114410;-63
2021/06/12 09:07:28;;;;;;;7.35;3.80;;;;;;;23.90;47.64;101941.72;5037463;27;114011;-63
2021/06/12 09:09:58;;;;;;;6.18;3.97;;;;;;;23.90;47.10;101945.31;5048425;27;124133;-63
2021/06/12 09:12:47;;;;;;;7.47;4.10;;;;;;;23.87;47.36;101948.25;5051448;27;124319;-63
2021/06/12 09:15:17;;;;;;;7.35;3.80;;;;;;;23.90;47.52;101942.59;5049742;27;114557;-63
2021/06/12 09:17:50;;;;;;;8.30;3.80;;;;;;;23.96;46.93;101941.22;5050403;27;113336;-63
2021/06/12 09:20:42;;;;;;;11.68;4.10;;;;;;;24.02;46.92;101950.69;5049582;27;124139;-63
2021/06/12 09:23:19;;;;;;;5.85;3.60;;;;;;;24.05;46.41;101950.41;5051931;27;124069;-62
2021/06/12 09:25:48;;;;;;;7.07;3.88;;;;;;;24.08;46.13;101950.16;5045571;27;113361;-63
2021/06/12 09:28:16;;;;;;;7.22;3.60;;;;;;;24.11;45.98;101949.91;5051816;27;114284;-63
2021/06/12 09:30:43;;;;;;;7.55;3.75;;;;;;;24.15;45.65;101945.94;5050815;27;124197;-63
2021/06/12 09:33:10;;;;;;;9.10;4.05;;;;;;;24.19;46.12;101950.09;5050954;27;123943;-63
2021/06/12 09:35:40;;;;;;;11.82;4.10;;;;;;;24.26;46.00;101937.75;5052772;27;115251;-63
2021/06/12 09:38:32;;;;;;;8.10;4.00;;;;;;;24.39;45.92;101947.50;5054267;27;115087;-63
2021/06/12 09:41:00;;;;;;;8.45;3.88;;;;;;;24.49;44.94;101948.44;5053356;27;124290;-63
2021/06/12 09:43:29;;;;;;;6.63;3.97;;;;;;;24.58;44.85;101953.09;5054069;27;124095;-64
2021/06/12 09:45:57;;;;;;;8.68;4.60;;;;;;;24.70;44.71;101955.72;5054355;27;114419;-63
2021/06/12 09:48:25;;;;;;;6.38;3.60;;;;;;;24.78;44.96;101954.03;5051692;27;114035;-63
2021/06/12 09:51:14;;;;;;;7.85;3.20;;;;;;;24.95;45.05;101955.25;5052949;27;124312;-62
2021/06/12 09:53:49;;;;;;;8.05;3.67;;;;;;;25.11;44.00;101959.31;5052161;27;124039;-62
2021/06/12 09:56:17;;;;;;;7.80;3.67;;;;;;;25.23;44.07;101955.53;5054615;27;114570;-62
2021/06/12 09:58:45;;;;;;;6.28;3.92;;;;;;;25.34;44.09;101960.84;5047241;27;114304;-63
2021/06/12 10:01:14;;;;;;;9.05;3.67;;;;;;;25.40;42.98;101962.16;5052002;27;124058;-62
2021/06/12 10:03:41;;;;;;;8.15;3.10;;;;;;;25.43;43.00;101970.03;5050955;27;124224;-62
2021/06/12 10:06:10;;;;;;;8.18;3.00;;;;;;;25.44;42.31;101972.56;5044779;27;114482;-62
2021/06/12 10:08:39;;;;;;;4.90;2.83;;;;;;;25.48;41.54;101966.88;5036860;27;114322;-62
2021/06/12 10:11:07;;;;;;;8.68;3.60;;;;;;;25.53;41.43;101972.75;5054708;27;124799;-62
2021/06/12 10:13:35;;;;;;;6.65;3.50;;;;;;;25.56;41.62;101976.06;5037652;27;124301;-62
2021/06/12 10:16:04;;;;;;;7.45;3.25;;;;;;;25.59;41.52;101974.91;5052774;27;114482;-62
2021/06/12 10:18:32;;;;;;;8.90;3.47;;;;;;;25.60;41.41;101971.22;5053930;27;114193;-62
2021/06/12 10:21:00;;;;;;;7.72;3.63;;;;;;;25.61;41.11;101972.91;5054102;27;124201;-62
2021/06/12 10:23:27;;;;;;;8.52;3.45;;;;;;;25.62;40.87;101974.63;5053640;27;124188;-62
2021/06/12 10:25:55;;;;;;;6.45;3.40;;;;;;;25.64;41.14;101972.63;5051262;27;115919;-62
2021/06/12 10:28:23;;;;;;;6.60;3.47;;;;;;;25.60;40.58;101971.22;5047255;27;114922;-62
2021/06/12 10:30:50;;;;;;;6.03;3.25;;;;;;;25.59;40.68;101970.31;5052411;27;124208;-62
2021/06/12 10:33:18;;;;;;;6.53;3.60;;;;;;;25.63;41.40;101981.75;5051304;27;124607;-62
2021/06/12 10:35:46;;;;;;;7.10;3.60;;;;;;;25.67;41.20;101983.19;5054113;27;115006;-62
2021/06/12 10:38:17;;;;;;;7.30;3.70;;;;;;;25.70;40.67;101987.50;5052917;27;114017;-62
2021/06/12 10:40:47;;;;;;;7.18;3.30;;;;;;;25.77;40.83;101994.94;5053682;27;124360;-62
2021/06/12 10:43:18;;;;;;;6.60;3.10;;;;;;;25.84;40.20;101989.78;5052415;27;123992;-62
2021/06/12 10:45:48;;;;;;;9.90;3.70;;;;;;;25.86;40.45;101984.22;5050373;27;114349;-64
2021/06/12 10:48:52;;;;;;;7.82;3.35;;;;;;;25.84;39.96;101985.25;5053352;27;114229;-62
2021/06/12 10:51:25;;;;;;;9.48;3.22;;;;;;;25.78;40.06;101985.78;5059644;27;123117;-62
2021/06/12 10:54:11;;;;;;;5.97;3.58;;;;;;;25.76;40.05;101993.19;5050774;27;123888;-62
2021/06/12 10:56:39;;;;;;;;;;;;;;;25.73;40.72;101987.19;5046956;27;114373;-62
2021/06/12 10:59:08;;;;;;;9.93;4.10;;;;;;;25.69;40.20;101997.47;5048448;27;114146;-63
2021/06/12 11:01:36;;;;;;;9.48;3.83;;;;;;;25.67;40.29;101993.19;5051298;27;125483;-62
2021/06/12 11:04:12;;;;;;;9.18;3.55;;;;;;;25.67;40.18;101988.63;5051979;27;123881;-63
2021/06/12 11:06:54;;;;;;;8.30;3.63;;;;;;;25.74;40.08;101995.19;5043920;27;113161;-63
2021/06/12 11:09:48;;;;;;;10.07;3.72;;;;;;;25.77;40.52;101992.22;5047790;27;96930;-62
2021/06/12 11:12:15;;;;;;;7.70;3.72;;;;;;;25.85;40.05;101994.22;5047864;27;124183;-62
2021/06/12 11:14:59;;;;;;;9.75;3.67;;;;;;;25.82;39.56;101991.78;5050594;27;124794;-62
2021/06/12 11:17:26;;;;;;;6.75;3.63;;;;;;;25.81;39.64;101999.06;5045875;27;115152;-63
2021/06/12 11:19:56;;;;;;;9.60;3.80;;;;;;;25.77;39.26;101994.94;5046706;27;115442;-62
2021/06/12 11:22:32;;;;;;;7.75;3.80;;;;;;;25.74;39.57;101989.78;5044885;27;124086;-63